createdAt,value
2022-08-11T00:02:02.400Z,57.40
2022-08-11T00:04:39.837Z,57.65
2022-08-11T00:10:32.104Z,57.63
2022-08-11T00:13:21.738Z,57.53
2022-08-11T00:20:11.857Z,56.83
2022-08-11T00:22:24.108Z,57.56
2022-08-11T00:24:57.205Z,58.90
2022-08-11T00:27:40.741Z,59.34
2022-08-11T00:30:18.028Z,59.07
2022-08-11T00:33:01.769Z,57.99
2022-08-11T00:35:53.931Z,58.51
2022-08-11T00:38:30.058Z,59.68
2022-08-11T00:41:49.368Z,60.20
2022-08-11T00:44:47.525Z,59.88
2022-08-11T00:48:14.314Z,58.05
2022-08-11T00:51:57.665Z,59.88
2022-08-11T00:55:23.428Z,57.87
2022-08-11T00:58:50.761Z,58.69
2022-08-11T01:01:18.177Z,60.12
2022-08-11T01:04:34.737Z,59.31
2022-08-11T01:08:02.099Z,60.61
2022-08-11T01:11:06.732Z,60.37
2022-08-11T01:14:26.121Z,58.74
2022-08-11T01:18:01.687Z,59.29
2022-08-11T01:21:34.708Z,59.66
2022-08-11T01:25:14.830Z,60.06
2022-08-11T01:28:19.066Z,60.04
2022-08-11T01:31:34.355Z,60.58
2022-08-11T01:35:01.422Z,61.04
2022-08-11T01:38:34.974Z,63.20
2022-08-11T01:41:53.207Z,61.21
2022-08-11T01:45:03.997Z,61.03
2022-08-11T01:48:22.364Z,61.73
2022-08-11T01:51:26.877Z,61.06
2022-08-11T01:54:17.234Z,61.79
2022-08-11T01:57:51.251Z,61.75
2022-08-11T02:00:29.001Z,62.54
2022-08-11T02:03:24.464Z,61.20
2022-08-11T02:06:54.735Z,62.20
2022-08-11T02:10:00.247Z,62.60
2022-08-11T02:12:52.955Z,62.59
2022-08-11T02:15:39.355Z,63.56
2022-08-11T02:18:24.228Z,62.93
2022-08-11T02:21:26.459Z,62.62
2022-08-11T02:24:08.249Z,63.62
2022-08-11T02:26:46.741Z,63.32
2022-08-11T02:29:28.708Z,62.74
2022-08-11T02:32:46.557Z,62.86
2022-08-11T02:35:42.811Z,63.92
2022-08-11T02:38:54.492Z,63.84
2022-08-11T02:42:32.488Z,64.40
2022-08-11T02:45:49.051Z,63.51
2022-08-11T02:49:15.694Z,63.57
2022-08-11T02:52:07.183Z,64.19
2022-08-11T02:55:02.397Z,64.39
2022-08-11T02:58:22.076Z,65.39
2022-08-11T03:01:11.777Z,65.01
2022-08-11T03:04:18.019Z,64.75
2022-08-11T03:07:29.310Z,64.74
2022-08-11T03:10:30.875Z,65.19
2022-08-11T03:13:40.114Z,66.77
2022-08-11T03:16:53.167Z,65.39
2022-08-11T03:20:03.666Z,65.38
2022-08-11T03:23:01.788Z,65.67
2022-08-11T03:26:03.156Z,65.29
2022-08-11T03:28:54.829Z,64.82
2022-08-11T03:31:54.706Z,66.06
2022-08-11T03:34:28.426Z,65.72
2022-08-11T03:37:52.989Z,65.02
2022-08-11T03:40:48.309Z,65.50
2022-08-11T03:44:04.953Z,65.53
2022-08-11T03:47:05.184Z,65.81
2022-08-11T03:50:12.109Z,66.10
2022-08-11T03:53:35.794Z,66.08
2022-08-11T03:56:49.472Z,66.44
2022-08-11T04:00:11.900Z,66.42
2022-08-11T04:03:20.403Z,66.40
2022-08-11T04:06:37.648Z,67.62
2022-08-11T04:09:46.502Z,66.47
2022-08-11T04:12:59.266Z,66.61
2022-08-11T04:16:11.551Z,66.64
2022-08-11T04:19:47.484Z,66.81
2022-08-11T04:23:07.394Z,66.23
2022-08-11T04:26:44.169Z,66.65
2022-08-11T04:30:03.913Z,65.79
2022-08-11T04:32:59.286Z,65.84
2022-08-11T04:36:53.703Z,65.25
2022-08-11T04:39:34.509Z,65.18
2022-08-11T04:43:22.457Z,65.41
2022-08-11T04:46:51.434Z,65.25
2022-08-11T04:50:33.961Z,63.62
2022-08-11T04:53:53.432Z,64.05
2022-08-11T04:56:44.698Z,63.15
2022-08-11T05:00:30.123Z,63.39
2022-08-11T05:03:46.575Z,63.11
2022-08-11T05:07:06.504Z,62.72
2022-08-11T05:10:16.099Z,61.26
2022-08-11T05:13:30.022Z,60.51
2022-08-11T05:16:26.345Z,59.72
2022-08-11T05:19:19.266Z,59.04
2022-08-11T05:22:17.923Z,59.16
2022-08-11T05:25:10.942Z,58.33
2022-08-11T05:28:33.918Z,58.08
2022-08-11T05:31:33.953Z,56.08
2022-08-11T05:34:41.558Z,57.10
2022-08-11T05:37:33.815Z,56.02
2022-08-11T05:40:31.850Z,55.64
2022-08-11T05:43:32.284Z,55.71
2022-08-11T05:46:26.196Z,54.65
2022-08-11T05:49:13.029Z,54.21
2022-08-11T05:52:05.434Z,54.08
2022-08-11T05:55:06.130Z,52.82
2022-08-11T05:57:48.972Z,51.59
2022-08-11T06:00:20.444Z,53.69
2022-08-11T06:02:55.705Z,53.77
2022-08-11T06:05:43.234Z,53.30
2022-08-11T06:08:13.780Z,52.78
2022-08-11T06:10:46.191Z,51.10
2022-08-11T06:13:17.572Z,51.17
2022-08-11T06:15:52.077Z,50.57
2022-08-11T06:18:20.497Z,49.74
2022-08-11T06:21:00.404Z,48.29
2022-08-11T06:23:33.629Z,48.51
2022-08-11T06:26:14.339Z,48.55
2022-08-11T06:28:45.880Z,48.45
2022-08-11T06:31:25.662Z,46.94
2022-08-11T06:34:53.148Z,47.59
2022-08-11T06:38:17.892Z,46.66
2022-08-11T06:41:30.530Z,47.80
2022-08-11T06:44:13.082Z,47.83
2022-08-11T06:46:47.571Z,47.55
2022-08-11T06:49:50.658Z,46.67
2022-08-11T06:52:35.301Z,47.15
2022-08-11T06:55:56.671Z,46.61
2022-08-11T06:58:54.266Z,45.90
2022-08-11T07:02:15.492Z,45.54
2022-08-11T07:05:04.223Z,45.75
2022-08-11T07:08:36.105Z,46.50
2022-08-11T07:12:03.188Z,44.57
2022-08-11T07:14:51.396Z,44.22
2022-08-11T07:17:25.113Z,45.22
2022-08-11T07:20:20.100Z,45.57
2022-08-11T07:23:20.371Z,44.31
2022-08-11T07:26:12.810Z,44.33
2022-08-11T07:28:57.967Z,43.75
2022-08-11T07:31:31.374Z,43.46
2022-08-11T07:34:20.541Z,42.43
2022-08-11T07:37:03.228Z,43.09
2022-08-11T07:39:37.853Z,42.40
2022-08-11T07:42:13.446Z,42.12
2022-08-11T07:45:05.560Z,41.92
2022-08-11T07:47:54.092Z,42.68
2022-08-11T07:50:41.005Z,42.08
2022-08-11T07:53:08.712Z,42.93
2022-08-11T07:55:51.099Z,42.29
2022-08-11T07:58:45.759Z,41.47
2022-08-11T08:01:50.313Z,41.35
2022-08-11T08:04:38.350Z,41.01
2022-08-11T08:07:24.421Z,41.47
2022-08-11T08:10:15.871Z,40.82
2022-08-11T08:13:02.505Z,39.68
2022-08-11T08:15:50.267Z,39.22
2022-08-11T08:18:27.074Z,38.82
2022-08-11T08:21:12.089Z,38.38
2022-08-11T08:23:46.612Z,38.57
2022-08-11T08:26:35.025Z,37.93
2022-08-11T08:29:25.381Z,38.86
2022-08-11T08:31:53.189Z,39.59
2022-08-11T08:34:21.356Z,37.71
2022-08-11T08:36:51.574Z,37.26
2022-08-11T08:39:23.311Z,36.49
2022-08-11T08:41:56.055Z,37.85
2022-08-11T08:44:42.032Z,37.15
2022-08-11T08:47:41.709Z,36.81
2022-08-11T08:50:16.948Z,36.00
2022-08-11T08:53:01.660Z,36.14
2022-08-11T08:55:34.508Z,35.02
2022-08-11T08:58:02.449Z,34.93
2022-08-11T09:00:47.121Z,35.29
2022-08-11T09:06:07.312Z,35.14
2022-08-11T09:08:35.493Z,34.52
2022-08-11T09:11:24.280Z,34.77
2022-08-11T09:14:05.120Z,34.26
2022-08-11T09:16:36.139Z,34.43
2022-08-11T09:19:04.019Z,33.76
2022-08-11T09:21:48.853Z,37.83
2022-08-11T09:24:38.099Z,34.98
2022-08-11T09:27:08.411Z,34.93
2022-08-11T09:29:38.025Z,34.78
2022-08-11T09:32:07.154Z,34.12
2022-08-11T09:34:37.252Z,33.79
2022-08-11T09:37:54.686Z,32.63
2022-08-11T09:40:29.233Z,32.59
2022-08-11T09:43:25.410Z,33.55
2022-08-11T09:45:54.622Z,31.00
2022-08-11T09:48:26.128Z,33.10
2022-08-11T09:50:59.682Z,31.39
2022-08-11T09:53:36.182Z,32.84
2022-08-11T09:56:35.245Z,30.99
2022-08-11T09:59:04.760Z,28.61
2022-08-11T10:01:47.363Z,29.47
2022-08-11T10:04:28.695Z,28.57
2022-08-11T10:07:03.448Z,27.91
2022-08-11T10:10:01.413Z,29.83
2022-08-11T10:12:42.187Z,30.74
2022-08-11T10:15:34.147Z,29.40
2022-08-11T10:18:37.644Z,29.32
2022-08-11T10:21:44.191Z,29.31
2022-08-11T10:24:31.859Z,31.32
2022-08-11T10:27:00.645Z,31.42
2022-08-11T10:29:54.713Z,30.32
2022-08-11T10:32:59.448Z,30.71
2022-08-11T10:35:32.599Z,28.02
2022-08-11T10:38:07.700Z,28.14
2022-08-11T10:41:07.428Z,29.23
2022-08-11T10:44:01.378Z,27.53
2022-08-11T10:46:50.965Z,26.71
2022-08-11T10:49:20.559Z,29.52
2022-08-11T10:52:07.094Z,28.24
2022-08-11T10:55:00.684Z,30.63
2022-08-11T10:58:07.484Z,28.27
2022-08-11T11:00:36.275Z,27.44
2022-08-11T11:03:22.298Z,26.63
2022-08-11T11:06:27.830Z,26.84
2022-08-11T11:08:57.488Z,26.29
2022-08-11T11:11:52.234Z,26.90
2022-08-11T11:14:45.746Z,28.31
2022-08-11T11:17:15.704Z,25.76
2022-08-11T11:19:44.958Z,26.24
2022-08-11T11:22:33.697Z,27.62
2022-08-11T11:25:23.167Z,25.60
2022-08-11T11:28:56.676Z,28.06
2022-08-11T11:32:12.151Z,26.32
2022-08-11T11:35:06.361Z,28.39
2022-08-11T11:37:35.612Z,27.56
2022-08-11T11:40:14.533Z,26.77
2022-08-11T11:42:46.256Z,27.07
2022-08-11T11:45:23.374Z,25.67
2022-08-11T11:47:56.168Z,24.99
2022-08-11T11:50:42.925Z,23.65
2022-08-11T11:53:12.312Z,25.69
2022-08-11T11:55:40.619Z,23.75
2022-08-11T11:58:31.495Z,24.77
2022-08-11T12:01:19.903Z,26.87
2022-08-11T12:03:50.984Z,23.51
2022-08-11T12:06:22.135Z,23.84
2022-08-11T12:08:53.654Z,24.00
2022-08-11T12:11:44.267Z,23.29
2022-08-11T12:14:12.621Z,25.88
2022-08-11T12:16:43.602Z,24.91
2022-08-11T12:19:17.712Z,25.13
2022-08-11T12:22:04.515Z,25.90
2022-08-11T12:24:53.494Z,23.86
2022-08-11T12:27:25.963Z,24.92
2022-08-11T12:30:13.724Z,23.27
2022-08-11T12:32:42.839Z,23.34
2022-08-11T12:35:11.356Z,23.49
2022-08-11T12:37:47.599Z,22.65
2022-08-11T12:41:11.753Z,24.22
2022-08-11T12:43:56.955Z,23.59
2022-08-11T12:46:34.479Z,24.16
2022-08-11T12:49:33.158Z,23.82
2022-08-11T12:52:15.803Z,23.96
2022-08-11T12:55:39.372Z,24.53
2022-08-11T12:58:15.897Z,24.44
2022-08-11T13:01:04.155Z,24.73
2022-08-11T13:03:56.663Z,24.82
2022-08-11T13:06:26.163Z,24.46
2022-08-11T13:09:00.998Z,23.85
2022-08-11T13:12:03.492Z,22.96
2022-08-11T13:14:33.150Z,20.14
2022-08-11T13:17:20.821Z,20.51
2022-08-11T13:20:12.564Z,21.40
2022-08-11T13:22:45.819Z,24.09
2022-08-11T13:25:16.192Z,21.81
2022-08-11T13:27:46.474Z,23.33
2022-08-11T13:30:43.067Z,22.35
2022-08-11T13:33:16.910Z,23.02
2022-08-11T13:35:49.647Z,22.17
2022-08-11T13:38:20.437Z,21.46
2022-08-11T13:40:56.146Z,22.18
2022-08-11T13:43:24.847Z,20.84
2022-08-11T13:46:14.264Z,22.21
2022-08-11T13:48:42.453Z,23.15
2022-08-11T13:51:34.764Z,22.60
2022-08-11T13:54:23.956Z,21.27
2022-08-11T13:57:01.197Z,21.77
2022-08-11T13:59:30.815Z,21.39
2022-08-11T14:02:35.508Z,21.33
2022-08-11T14:05:25.522Z,22.58
2022-08-11T14:08:01.039Z,23.21
2022-08-11T14:10:34.724Z,20.62
2022-08-11T14:13:42.467Z,21.22
2022-08-11T14:16:41.291Z,21.47
2022-08-11T14:19:14.229Z,21.61
2022-08-11T14:22:07.423Z,21.87
2022-08-11T14:24:45.069Z,21.56
2022-08-11T14:28:30.078Z,21.06
2022-08-11T14:30:01.831Z,21.65
2022-08-11T14:32:29.393Z,21.87
2022-08-11T14:34:58.789Z,21.68
2022-08-11T14:37:27.900Z,21.08
2022-08-11T14:40:22.433Z,20.88
2022-08-11T14:43:12.069Z,21.96
2022-08-11T14:45:59.081Z,22.38
2022-08-11T14:48:27.242Z,21.03
2022-08-11T14:50:54.727Z,21.23
2022-08-11T14:53:23.381Z,20.79
2022-08-11T14:56:10.469Z,19.76
2022-08-11T14:58:41.860Z,19.20
2022-08-11T15:01:30.010Z,20.46
2022-08-11T15:04:25.038Z,21.79
2022-08-11T15:06:47.254Z,20.86
2022-08-11T15:09:15.253Z,21.00
2022-08-11T15:12:03.064Z,20.65
2022-08-11T15:14:49.369Z,21.61
2022-08-11T15:17:24.076Z,21.32
2022-08-11T15:20:26.554Z,20.90
2022-08-11T15:23:25.967Z,21.86
2022-08-11T15:26:12.166Z,22.10
2022-08-11T15:29:14.506Z,22.15
2022-08-11T15:32:00.271Z,21.82
2022-08-11T15:34:47.927Z,21.22
2022-08-11T15:37:27.765Z,19.98
2022-08-11T15:40:31.735Z,21.20
2022-08-11T15:44:06.819Z,21.11
2022-08-11T15:46:50.329Z,21.07
2022-08-11T15:50:13.197Z,21.85
2022-08-11T15:52:34.631Z,21.79
2022-08-11T15:55:08.600Z,22.12
2022-08-11T15:58:08.803Z,21.45
2022-08-11T16:01:10.849Z,21.74
2022-08-11T16:04:13.240Z,21.51
2022-08-11T16:06:58.447Z,20.78
2022-08-11T16:09:48.144Z,21.30
2022-08-11T16:12:33.024Z,21.53
2022-08-11T16:15:29.677Z,21.44
2022-08-11T16:18:03.970Z,22.27
2022-08-11T16:20:33.238Z,21.85
2022-08-11T16:23:06.598Z,22.00
2022-08-11T16:27:04.602Z,22.31
2022-08-11T16:28:24.838Z,22.11
2022-08-11T16:30:54.056Z,21.83
2022-08-11T16:33:51.170Z,21.75
2022-08-11T16:36:32.935Z,22.79
2022-08-11T16:39:01.589Z,22.18
2022-08-11T16:41:53.625Z,22.07
2022-08-11T16:44:42.434Z,22.28
2022-08-11T16:47:18.233Z,22.85
2022-08-11T16:50:07.409Z,22.67
2022-08-11T16:52:34.939Z,22.83
2022-08-11T16:55:03.778Z,23.18
2022-08-11T16:57:52.822Z,22.42
2022-08-11T17:00:19.955Z,23.56
2022-08-11T17:03:13.009Z,24.32
2022-08-11T17:06:09.893Z,23.94
2022-08-11T17:09:11.202Z,23.88
2022-08-11T17:12:16.322Z,24.21
2022-08-11T17:14:59.487Z,24.00
2022-08-11T17:17:36.659Z,24.41
2022-08-11T17:20:40.091Z,24.22
2022-08-11T17:23:17.891Z,24.90
2022-08-11T17:26:03.525Z,24.78
2022-08-11T17:28:33.600Z,24.06
2022-08-11T17:31:22.644Z,24.61
2022-08-11T17:34:10.218Z,24.65
2022-08-11T17:36:41.548Z,25.02
2022-08-11T17:39:13.743Z,25.41
2022-08-11T17:42:00.556Z,25.12
2022-08-11T17:44:48.410Z,25.67
2022-08-11T17:47:36.598Z,25.69
2022-08-11T17:50:15.956Z,26.19
2022-08-11T17:53:05.820Z,25.83
2022-08-11T17:55:57.911Z,26.05
2022-08-11T17:58:45.134Z,26.21
2022-08-11T18:01:14.796Z,25.89
2022-08-11T18:03:58.081Z,26.25
2022-08-11T18:06:33.735Z,26.37
2022-08-11T18:09:26.380Z,26.94
2022-08-11T18:12:14.126Z,27.17
2022-08-11T18:15:05.956Z,27.01
2022-08-11T18:17:52.852Z,26.92
2022-08-11T18:20:39.103Z,27.14
2022-08-11T18:23:45.834Z,27.65
2022-08-11T18:26:40.267Z,28.43
2022-08-11T18:29:28.068Z,28.91
2022-08-11T18:32:22.106Z,28.47
2022-08-11T18:35:11.295Z,29.08
2022-08-11T18:38:07.818Z,29.42
2022-08-11T18:40:56.221Z,29.96
2022-08-11T18:43:45.355Z,30.92
2022-08-11T18:46:35.054Z,31.04
2022-08-11T18:50:01.551Z,30.26
2022-08-11T18:52:41.715Z,30.20
2022-08-11T18:55:33.757Z,30.27
2022-08-11T18:58:27.780Z,30.43
2022-08-11T19:01:20.799Z,31.67
2022-08-11T19:04:10.759Z,31.05
2022-08-11T19:06:58.849Z,31.09
2022-08-11T19:09:46.199Z,30.88
2022-08-11T19:12:36.972Z,30.86
2022-08-11T19:15:28.307Z,30.97
2022-08-11T19:18:18.659Z,31.46
2022-08-11T19:21:08.873Z,31.88
2022-08-11T19:24:06.575Z,32.14
2022-08-11T19:26:53.687Z,33.61
2022-08-11T19:30:07.721Z,33.94
2022-08-11T19:32:55.976Z,32.61
2022-08-11T19:35:45.620Z,33.02
2022-08-11T19:38:32.220Z,33.22
2022-08-11T19:41:52.070Z,33.13
2022-08-11T19:44:26.662Z,33.08
2022-08-11T19:47:14.372Z,33.10
2022-08-11T19:50:02.292Z,33.85
2022-08-11T19:52:49.400Z,34.24
2022-08-11T19:55:36.608Z,33.94
2022-08-11T19:58:26.158Z,34.28
2022-08-11T20:01:12.056Z,33.98
2022-08-11T20:03:57.758Z,34.93
2022-08-11T20:06:43.451Z,34.51
2022-08-11T20:10:04.893Z,34.85
2022-08-11T20:12:37.468Z,35.39
2022-08-11T20:15:26.418Z,35.53
2022-08-11T20:18:13.312Z,35.41
2022-08-11T20:20:59.694Z,36.01
2022-08-11T20:23:46.554Z,36.11
2022-08-11T20:26:33.190Z,36.25
2022-08-11T20:29:20.496Z,35.96
2022-08-11T20:32:09.696Z,36.48
2022-08-11T20:34:58.661Z,36.59
2022-08-11T20:37:50.963Z,36.92
2022-08-11T20:40:40.844Z,37.27
2022-08-11T20:44:07.840Z,37.14
2022-08-11T20:46:45.552Z,38.05
2022-08-11T20:49:40.629Z,38.56
2022-08-11T20:52:32.222Z,40.12
2022-08-11T20:55:25.703Z,40.88
2022-08-11T20:58:18.285Z,40.67
2022-08-11T21:01:07.456Z,41.93
2022-08-11T21:04:06.017Z,42.10
2022-08-11T21:06:54.267Z,42.65
2022-08-11T21:10:01.069Z,42.05
2022-08-11T21:12:50.704Z,44.08
2022-08-11T21:16:01.829Z,43.71
2022-08-11T21:18:51.237Z,43.43
2022-08-11T21:21:45.541Z,46.33
2022-08-11T21:24:37.437Z,45.36
2022-08-11T21:27:32.191Z,43.85
2022-08-11T21:30:19.471Z,44.60
2022-08-11T21:33:05.416Z,44.29
2022-08-11T21:35:51.683Z,47.08
2022-08-11T21:38:37.624Z,45.78
2022-08-11T21:41:25.535Z,45.80
2022-08-11T21:44:12.713Z,47.96
2022-08-11T21:46:59.251Z,46.13
2022-08-11T21:49:46.163Z,46.61
2022-08-11T21:52:32.416Z,47.81
2022-08-11T21:55:18.450Z,46.54
2022-08-11T21:58:05.411Z,49.13
2022-08-11T22:00:52.184Z,47.51
2022-08-11T22:03:49.706Z,47.33
2022-08-11T22:06:36.745Z,47.57
2022-08-11T22:09:23.135Z,47.89
2022-08-11T22:12:29.678Z,47.67
2022-08-11T22:15:15.686Z,49.01
2022-08-11T22:18:02.238Z,48.33
2022-08-11T22:20:50.687Z,49.71
2022-08-11T22:23:38.114Z,50.45
2022-08-11T22:26:25.512Z,51.41
2022-08-11T22:29:11.705Z,49.86
2022-08-11T22:31:59.636Z,52.33
2022-08-11T22:34:52.655Z,49.96
2022-08-11T22:37:41.465Z,50.63
2022-08-11T22:40:28.824Z,49.58
2022-08-11T22:43:14.696Z,52.28
2022-08-11T22:46:00.430Z,50.94
2022-08-11T22:48:49.325Z,49.60
2022-08-11T22:51:38.142Z,53.69
2022-08-11T22:54:25.578Z,51.90
2022-08-11T22:57:12.246Z,52.77
2022-08-11T22:59:59.374Z,52.68
2022-08-11T23:02:48.719Z,53.28
2022-08-11T23:05:35.561Z,52.70
2022-08-11T23:08:22.678Z,52.04
2022-08-11T23:11:09.488Z,53.37
2022-08-11T23:13:55.756Z,53.08
2022-08-11T23:16:42.369Z,53.20
2022-08-11T23:20:08.627Z,52.02
2022-08-11T23:22:49.207Z,53.91
2022-08-11T23:25:36.510Z,54.52
2022-08-11T23:28:23.898Z,53.00
2022-08-11T23:31:15.820Z,54.00
2022-08-11T23:34:39.414Z,54.91
2022-08-11T23:37:19.611Z,55.79
2022-08-11T23:40:05.435Z,55.38
2022-08-11T23:42:59.267Z,56.37
2022-08-11T23:45:45.618Z,55.54
2022-08-11T23:48:33.973Z,56.40
2022-08-11T23:51:21.216Z,56.62
2022-08-11T23:54:08.374Z,56.82
2022-08-11T23:56:54.766Z,57.68
2022-08-11T23:59:40.795Z,57.69
